Ana Sayfa
METAR-TAF:

METAR-TAF

Havaalanları :

La Paz, Meksika

Enlem: 24-04N, Boylam: 110-22W, yükseklik: 21 m

Güncel hava durumu gözlemi

Rapor saat 13:00 UTC de 29 dakika önce yapıldı.
Rüzgar güneydan 7 kt
Sıcaklık 16°C
Nem 100%
Basınç 1015 hPa
Görüş mesafesi: 16.1 km
Açık gökyüzü

METAR: MMLP 091300Z RTD 18007KT 10SM SKC 16/16 A2996 RMK RTS

Saat: 06:29 (13:29 UTC)

Tahmin

Rapor saat 04:59 UTC de 8 saat ve 30 dakika önce yapıldı.
Ayın 09'si saat 06 UTC'den ayın 10'si saat 06 UTC'ye kadar geçerli Tahmin
Rüzgar güneydan 5 kt
Görüş mesafesi: 10 km
Açık gökyüzü
Ayın 09'si saat 1800 UTC'den
Rüzgar kuzey/kuzeybatıdan 10 kt
Görüş mesafesi: 10 km
25000 ft yükseklikte parçalı bulutlu
Ayın 10'si saat 0500 UTC'den
Rüzgar güneydoğudan 5 kt
Görüş mesafesi: 10 km
Açık gökyüzü

TAF: MMLP 090459Z 0906/1006 19005KT P6SM SKC FM091800 34010KT P6SM SCT250 FM100500 14005KT P6SM SKC

4.000'den fazla havaalanı için hava durumu gözlemleri ve tahminleri (METAR ve TAF raporları).

Kullanılabilir istasyonlar harita üzerinde sarı ve kırmızı noktalarla gösterilir.

İstasyonun adını görmek için fareyi noktanın üzerinde gezdirin.

Sonrasında hava gözlem ve tahminlerini görmek için tıklayın.

Haritayı değiştirmek için: yaklaştırmak için siyah artı işaretli yeşil düğmeye ve uzaklaştırmak için de eksi işaretli düğmeye hızla tıklayın; bitişik haritalar için yeşil okları kullanın.


METAR-TAF: